sensor_id;sensor_type;location;lat;lon;timestamp;pressure;altitude;pressure_sealevel;temperature;humidity
19797;BME280;10058;57.654;12.044;2024-02-21T00:00:12;100259.63;;;11.25;100.00
19797;BME280;10058;57.654;12.044;2024-02-21T00:02:37;100250.28;;;10.95;100.00
19797;BME280;10058;57.654;12.044;2024-02-21T00:05:02;100243.44;;;11.06;100.00
19797;BME280;10058;57.654;12.044;2024-02-21T00:07:28;100237.50;;;11.20;100.00
19797;BME280;10058;57.654;12.044;2024-02-21T00:09:53;100229.94;;;11.45;100.00
19797;BME280;10058;57.654;12.044;2024-02-21T00:12:18;100231.34;;;11.21;100.00
19797;BME280;10058;57.654;12.044;2024-02-21T00:14:43;100239.91;;;11.06;100.00
19797;BME280;10058;57.654;12.044;2024-02-21T00:17:09;100230.97;;;10.99;100.00
19797;BME280;10058;57.654;12.044;2024-02-21T00:19:34;100228.16;;;10.89;100.00
19797;BME280;10058;57.654;12.044;2024-02-21T00:21:59;100245.09;;;11.01;100.00
19797;BME280;10058;57.654;12.044;2024-02-21T00:24:25;100233.63;;;10.99;100.00
19797;BME280;10058;57.654;12.044;2024-02-21T00:26:50;100229.34;;;11.07;100.00
19797;BME280;10058;57.654;12.044;2024-02-21T00:29:15;100228.44;;;11.05;100.00
19797;BME280;10058;57.654;12.044;2024-02-21T00:31:40;100218.91;;;11.16;100.00
19797;BME280;10058;57.654;12.044;2024-02-21T00:34:05;100212.59;;;11.08;100.00
19797;BME280;10058;57.654;12.044;2024-02-21T00:36:31;100210.59;;;10.94;100.00
19797;BME280;10058;57.654;12.044;2024-02-21T00:38:56;100205.53;;;11.06;100.00
19797;BME280;10058;57.654;12.044;2024-02-21T00:41:21;100194.19;;;11.14;100.00
19797;BME280;10058;57.654;12.044;2024-02-21T00:43:46;100194.13;;;11.11;100.00
19797;BME280;10058;57.654;12.044;2024-02-21T00:46:13;100192.16;;;10.98;100.00
19797;BME280;10058;57.654;12.044;2024-02-21T00:48:38;100189.00;;;11.21;100.00
19797;BME280;10058;57.654;12.044;2024-02-21T00:51:04;100181.97;;;11.21;100.00
19797;BME280;10058;57.654;12.044;2024-02-21T00:53:29;100173.09;;;11.18;100.00
19797;BME280;10058;57.654;12.044;2024-02-21T00:55:54;100170.28;;;11.08;100.00
19797;BME280;10058;57.654;12.044;2024-02-21T00:58:21;100166.78;;;11.08;100.00
19797;BME280;10058;57.654;12.044;2024-02-21T01:00:47;100160.72;;;11.16;100.00
19797;BME280;10058;57.654;12.044;2024-02-21T01:03:12;100163.38;;;10.64;100.00
19797;BME280;10058;57.654;12.044;2024-02-21T01:05:37;100156.13;;;11.03;100.00
19797;BME280;10058;57.654;12.044;2024-02-21T01:08:02;100152.63;;;11.06;100.00
19797;BME280;10058;57.654;12.044;2024-02-21T01:10:27;100155.38;;;11.13;100.00
19797;BME280;10058;57.654;12.044;2024-02-21T01:12:53;100146.25;;;10.93;100.00
19797;BME280;10058;57.654;12.044;2024-02-21T01:15:18;100139.72;;;10.70;100.00
19797;BME280;10058;57.654;12.044;2024-02-21T01:17:43;100135.88;;;11.05;100.00
19797;BME280;10058;57.654;12.044;2024-02-21T01:20:08;100120.22;;;11.19;100.00
19797;BME280;10058;57.654;12.044;2024-02-21T01:22:34;100120.94;;;11.10;100.00
19797;BME280;10058;57.654;12.044;2024-02-21T01:24:59;100114.72;;;11.05;100.00
19797;BME280;10058;57.654;12.044;2024-02-21T01:27:24;100105.16;;;11.15;100.00
19797;BME280;10058;57.654;12.044;2024-02-21T01:29:49;100100.84;;;11.22;100.00
19797;BME280;10058;57.654;12.044;2024-02-21T01:32:15;100093.63;;;11.11;100.00
19797;BME280;10058;57.654;12.044;2024-02-21T01:34:40;100084.59;;;10.96;100.00
19797;BME280;10058;57.654;12.044;2024-02-21T01:37:06;100082.47;;;11.32;100.00
19797;BME280;10058;57.654;12.044;2024-02-21T01:39:32;100074.34;;;11.19;100.00
19797;BME280;10058;57.654;12.044;2024-02-21T01:41:57;100072.25;;;10.96;100.00
19797;BME280;10058;57.654;12.044;2024-02-21T01:44:23;100057.22;;;10.91;100.00
19797;BME280;10058;57.654;12.044;2024-02-21T01:46:48;100058.34;;;11.08;100.00
19797;BME280;10058;57.654;12.044;2024-02-21T01:49:14;100048.69;;;11.11;100.00
19797;BME280;10058;57.654;12.044;2024-02-21T01:51:39;100047.91;;;11.19;100.00
19797;BME280;10058;57.654;12.044;2024-02-21T01:54:05;100045.72;;;10.87;100.00
19797;BME280;10058;57.654;12.044;2024-02-21T01:56:30;100035.69;;;11.30;100.00
19797;BME280;10058;57.654;12.044;2024-02-21T01:58:56;100034.81;;;11.29;100.00
19797;BME280;10058;57.654;12.044;2024-02-21T02:01:21;100013.63;;;11.25;100.00
19797;BME280;10058;57.654;12.044;2024-02-21T02:03:46;100023.84;;;11.00;100.00
19797;BME280;10058;57.654;12.044;2024-02-21T02:06:12;100006.72;;;11.37;100.00
19797;BME280;10058;57.654;12.044;2024-02-21T02:08:37;100001.47;;;11.43;100.00
19797;BME280;10058;57.654;12.044;2024-02-21T02:11:02;99984.69;;;11.40;100.00
19797;BME280;10058;57.654;12.044;2024-02-21T02:13:28;99984.00;;;11.56;100.00
19797;BME280;10058;57.654;12.044;2024-02-21T02:15:54;99978.63;;;11.50;100.00
19797;BME280;10058;57.654;12.044;2024-02-21T02:18:19;99967.25;;;11.60;100.00
19797;BME280;10058;57.654;12.044;2024-02-21T02:20:45;99966.88;;;11.27;100.00
19797;BME280;10058;57.654;12.044;2024-02-21T02:23:11;99963.56;;;11.46;100.00
19797;BME280;10058;57.654;12.044;2024-02-21T02:25:37;99956.63;;;11.54;100.00
19797;BME280;10058;57.654;12.044;2024-02-21T02:28:08;99951.31;;;11.54;100.00
19797;BME280;10058;57.654;12.044;2024-02-21T02:30:34;99949.38;;;11.38;100.00
19797;BME280;10058;57.654;12.044;2024-02-21T02:33:01;99940.25;;;11.11;100.00
19797;BME280;10058;57.654;12.044;2024-02-21T02:35:26;99934.88;;;11.02;100.00
19797;BME280;10058;57.654;12.044;2024-02-21T02:37:51;99928.03;;;11.20;100.00
19797;BME280;10058;57.654;12.044;2024-02-21T02:40:17;99922.72;;;11.20;100.00
19797;BME280;10058;57.654;12.044;2024-02-21T02:42:43;99919.19;;;11.18;100.00
19797;BME280;10058;57.654;12.044;2024-02-21T02:45:08;99909.16;;;10.91;100.00
19797;BME280;10058;57.654;12.044;2024-02-21T02:47:34;99914.84;;;11.26;100.00
19797;BME280;10058;57.654;12.044;2024-02-21T02:49:59;99910.66;;;11.46;100.00
19797;BME280;10058;57.654;12.044;2024-02-21T02:52:25;99911.13;;;11.08;100.00
19797;BME280;10058;57.654;12.044;2024-02-21T02:54:50;99900.50;;;11.02;100.00
19797;BME280;10058;57.654;12.044;2024-02-21T02:57:17;99890.59;;;10.86;100.00
19797;BME280;10058;57.654;12.044;2024-02-21T02:59:42;99889.97;;;11.05;100.00
19797;BME280;10058;57.654;12.044;2024-02-21T03:02:07;99882.81;;;11.00;100.00
19797;BME280;10058;57.654;12.044;2024-02-21T03:04:32;99872.78;;;10.70;100.00
19797;BME280;10058;57.654;12.044;2024-02-21T03:06:58;99872.16;;;10.92;100.00
19797;BME280;10058;57.654;12.044;2024-02-21T03:09:23;99867.69;;;10.85;100.00
19797;BME280;10058;57.654;12.044;2024-02-21T03:11:48;99860.66;;;10.87;100.00
19797;BME280;10058;57.654;12.044;2024-02-21T03:14:13;99867.88;;;11.03;100.00
19797;BME280;10058;57.654;12.044;2024-02-21T03:16:38;99860.75;;;10.96;100.00
19797;BME280;10058;57.654;12.044;2024-02-21T03:19:04;99855.16;;;10.69;100.00
19797;BME280;10058;57.654;12.044;2024-02-21T03:21:29;99857.16;;;10.90;100.00
19797;BME280;10058;57.654;12.044;2024-02-21T03:23:54;99848.41;;;10.95;100.00
19797;BME280;10058;57.654;12.044;2024-02-21T03:26:19;99846.31;;;10.67;100.00
19797;BME280;10058;57.654;12.044;2024-02-21T03:28:44;99846.34;;;10.70;100.00
19797;BME280;10058;57.654;12.044;2024-02-21T03:31:13;99842.63;;;10.53;100.00
19797;BME280;10058;57.654;12.044;2024-02-21T03:33:39;99837.59;;;10.77;100.00
19797;BME280;10058;57.654;12.044;2024-02-21T03:36:04;99832.69;;;11.07;100.00
19797;BME280;10058;57.654;12.044;2024-02-21T03:38:30;99835.97;;;10.85;100.00
19797;BME280;10058;57.654;12.044;2024-02-21T03:40:55;99824.16;;;10.59;100.00
19797;BME280;10058;57.654;12.044;2024-02-21T03:43:20;99829.22;;;11.14;100.00
19797;BME280;10058;57.654;12.044;2024-02-21T03:45:45;99820.53;;;11.29;100.00
19797;BME280;10058;57.654;12.044;2024-02-21T03:48:10;99822.97;;;11.09;100.00
19797;BME280;10058;57.654;12.044;2024-02-21T03:50:36;99817.38;;;10.79;100.00
19797;BME280;10058;57.654;12.044;2024-02-21T03:53:01;99812.59;;;10.48;100.00
19797;BME280;10058;57.654;12.044;2024-02-21T03:55:26;99803.38;;;10.88;100.00
19797;BME280;10058;57.654;12.044;2024-02-21T03:57:51;99790.19;;;10.92;100.00
19797;BME280;10058;57.654;12.044;2024-02-21T04:00:17;99787.81;;;11.16;100.00
19797;BME280;10058;57.654;12.044;2024-02-21T04:02:42;99784.53;;;11.42;100.00
19797;BME280;10058;57.654;12.044;2024-02-21T04:05:08;99787.69;;;11.04;100.00
19797;BME280;10058;57.654;12.044;2024-02-21T04:07:36;99765.84;;;11.27;100.00
19797;BME280;10058;57.654;12.044;2024-02-21T04:10:01;99776.38;;;11.21;100.00
19797;BME280;10058;57.654;12.044;2024-02-21T04:12:26;99762.34;;;11.31;100.00
19797;BME280;10058;57.654;12.044;2024-02-21T04:14:51;99762.06;;;10.97;100.00
19797;BME280;10058;57.654;12.044;2024-02-21T04:17:17;99758.88;;;11.35;100.00
19797;BME280;10058;57.654;12.044;2024-02-21T04:19:42;99753.34;;;11.10;100.00
19797;BME280;10058;57.654;12.044;2024-02-21T04:22:07;99754.25;;;11.11;100.00
19797;BME280;10058;57.654;12.044;2024-02-21T04:24:32;99748.25;;;11.32;100.00
19797;BME280;10058;57.654;12.044;2024-02-21T04:26:57;99743.03;;;11.38;100.00
19797;BME280;10058;57.654;12.044;2024-02-21T04:29:22;99741.28;;;11.40;100.00
19797;BME280;10058;57.654;12.044;2024-02-21T04:31:48;99725.41;;;11.43;100.00
19797;BME280;10058;57.654;12.044;2024-02-21T04:34:13;99725.53;;;11.55;100.00
19797;BME280;10058;57.654;12.044;2024-02-21T04:36:38;99736.03;;;11.46;100.00
19797;BME280;10058;57.654;12.044;2024-02-21T04:39:04;99727.03;;;11.23;100.00
19797;BME280;10058;57.654;12.044;2024-02-21T04:41:29;99723.38;;;11.08;100.00
19797;BME280;10058;57.654;12.044;2024-02-21T04:43:54;99725.31;;;11.31;100.00
19797;BME280;10058;57.654;12.044;2024-02-21T04:46:19;99722.75;;;11.37;100.00
19797;BME280;10058;57.654;12.044;2024-02-21T04:48:44;99725.34;;;11.34;100.00
19797;BME280;10058;57.654;12.044;2024-02-21T04:51:11;99720.81;;;11.16;100.00
19797;BME280;10058;57.654;12.044;2024-02-21T04:53:36;99722.53;;;11.14;100.00
19797;BME280;10058;57.654;12.044;2024-02-21T04:56:02;99720.81;;;11.16;100.00
19797;BME280;10058;57.654;12.044;2024-02-21T04:58:27;99720.97;;;11.36;100.00
19797;BME280;10058;57.654;12.044;2024-02-21T05:00:52;99720.72;;;11.05;100.00
19797;BME280;10058;57.654;12.044;2024-02-21T05:03:19;99709.50;;;11.37;100.00
19797;BME280;10058;57.654;12.044;2024-02-21T05:05:45;99712.31;;;11.58;100.00
19797;BME280;10058;57.654;12.044;2024-02-21T05:08:10;99714.84;;;11.46;100.00
19797;BME280;10058;57.654;12.044;2024-02-21T05:10:35;99709.63;;;11.52;100.00
19797;BME280;10058;57.654;12.044;2024-02-21T05:13:00;99703.56;;;11.71;100.00
19797;BME280;10058;57.654;12.044;2024-02-21T05:15:26;99701.81;;;11.73;100.00
19797;BME280;10058;57.654;12.044;2024-02-21T05:17:51;99704.38;;;11.64;100.00
19797;BME280;10058;57.654;12.044;2024-02-21T05:20:16;99706.84;;;11.34;100.00
19797;BME280;10058;57.654;12.044;2024-02-21T05:22:42;99704.19;;;11.34;100.00
19797;BME280;10058;57.654;12.044;2024-02-21T05:25:07;99711.91;;;11.09;100.00
19797;BME280;10058;57.654;12.044;2024-02-21T05:27:32;99706.81;;;11.32;100.00
19797;BME280;10058;57.654;12.044;2024-02-21T05:29:57;99699.72;;;11.25;100.00
19797;BME280;10058;57.654;12.044;2024-02-21T05:32:23;99707.56;;;11.14;100.00
19797;BME280;10058;57.654;12.044;2024-02-21T05:34:48;99702.34;;;11.21;100.00
19797;BME280;10058;57.654;12.044;2024-02-21T05:37:14;99700.59;;;11.23;100.00
19797;BME280;10058;57.654;12.044;2024-02-21T05:39:40;99697.09;;;11.30;100.00
19797;BME280;10058;57.654;12.044;2024-02-21T05:42:05;99704.25;;;11.43;100.00
19797;BME280;10058;57.654;12.044;2024-02-21T05:44:31;99704.38;;;11.64;100.00
19797;BME280;10058;57.654;12.044;2024-02-21T05:46:56;99700.84;;;11.62;100.00
19797;BME280;10058;57.654;12.044;2024-02-21T05:49:21;99701.75;;;11.64;100.00
19797;BME280;10058;57.654;12.044;2024-02-21T05:51:46;99704.28;;;11.46;100.00
19797;BME280;10058;57.654;12.044;2024-02-21T05:54:12;99705.81;;;11.16;100.00
19797;BME280;10058;57.654;12.044;2024-02-21T05:56:37;99703.09;;;11.09;100.00
19797;BME280;10058;57.654;12.044;2024-02-21T05:59:02;99702.91;;;10.86;100.00
19797;BME280;10058;57.654;12.044;2024-02-21T06:01:27;99709.06;;;10.85;100.00
19797;BME280;10058;57.654;12.044;2024-02-21T06:03:53;99701.94;;;10.78;100.00
19797;BME280;10058;57.654;12.044;2024-02-21T06:06:18;99700.31;;;10.89;100.00
19797;BME280;10058;57.654;12.044;2024-02-21T06:08:43;99705.56;;;10.86;100.00
19797;BME280;10058;57.654;12.044;2024-02-21T06:11:08;99709.84;;;10.73;100.00
19797;BME280;10058;57.654;12.044;2024-02-21T06:13:37;99709.03;;;10.82;100.00
19797;BME280;10058;57.654;12.044;2024-02-21T06:16:02;99709.88;;;10.78;100.00
19797;BME280;10058;57.654;12.044;2024-02-21T06:18:28;99710.72;;;10.74;100.00
19797;BME280;10058;57.654;12.044;2024-02-21T06:20:53;99720.34;;;10.67;100.00
19797;BME280;10058;57.654;12.044;2024-02-21T06:23:18;99712.56;;;10.81;100.00
19797;BME280;10058;57.654;12.044;2024-02-21T06:25:44;99710.75;;;10.77;100.00
19797;BME280;10058;57.654;12.044;2024-02-21T06:28:09;99715.88;;;10.62;100.00
19797;BME280;10058;57.654;12.044;2024-02-21T06:30:35;99714.28;;;10.77;100.00
19797;BME280;10058;57.654;12.044;2024-02-21T06:33:00;99718.63;;;10.74;100.00
19797;BME280;10058;57.654;12.044;2024-02-21T06:35:27;99712.53;;;10.78;100.00
19797;BME280;10058;57.654;12.044;2024-02-21T06:37:52;99712.72;;;10.99;100.00
19797;BME280;10058;57.654;12.044;2024-02-21T06:40:20;99707.19;;;10.72;100.00
19797;BME280;10058;57.654;12.044;2024-02-21T06:42:46;99699.44;;;10.93;100.00
19797;BME280;10058;57.654;12.044;2024-02-21T06:45:11;99702.13;;;10.96;100.00
19797;BME280;10058;57.654;12.044;2024-02-21T06:47:36;99699.94;;;10.53;100.00
19797;BME280;10058;57.654;12.044;2024-02-21T06:50:02;99707.19;;;10.72;100.00
19797;BME280;10058;57.654;12.044;2024-02-21T06:52:27;99704.56;;;10.76;100.00
19797;BME280;10058;57.654;12.044;2024-02-21T06:54:53;99702.97;;;10.89;100.00
19797;BME280;10058;57.654;12.044;2024-02-21T06:57:18;99696.81;;;10.96;100.00
19797;BME280;10058;57.654;12.044;2024-02-21T06:59:43;99699.31;;;10.79;100.00
19797;BME280;10058;57.654;12.044;2024-02-21T07:02:08;99702.78;;;10.71;100.00
19797;BME280;10058;57.654;12.044;2024-02-21T07:04:33;99704.72;;;10.93;100.00
19797;BME280;10058;57.654;12.044;2024-02-21T07:06:59;99704.66;;;10.84;100.00
19797;BME280;10058;57.654;12.044;2024-02-21T07:09:24;99703.13;;;11.10;100.00
19797;BME280;10058;57.654;12.044;2024-02-21T07:11:49;99702.78;;;10.71;100.00
19797;BME280;10058;57.654;12.044;2024-02-21T07:14:15;99709.97;;;10.87;100.00
19797;BME280;10058;57.654;12.044;2024-02-21T07:16:40;99716.22;;;10.95;100.00
19797;BME280;10058;57.654;12.044;2024-02-21T07:19:06;99721.50;;;10.95;100.00
19797;BME280;10058;57.654;12.044;2024-02-21T07:21:31;99718.81;;;10.88;100.00
19797;BME280;10058;57.654;12.044;2024-02-21T07:23:56;99726.88;;;11.04;100.00
19797;BME280;10058;57.654;12.044;2024-02-21T07:26:21;99710.78;;;10.81;100.00
19797;BME280;10058;57.654;12.044;2024-02-21T07:28:46;99718.09;;;11.05;100.00
19797;BME280;10058;57.654;12.044;2024-02-21T07:31:12;99711.22;;;11.32;100.00
19797;BME280;10058;57.654;12.044;2024-02-21T07:33:37;99726.91;;;11.07;100.00
19797;BME280;10058;57.654;12.044;2024-02-21T07:36:06;99732.06;;;10.95;100.00
19797;BME280;10058;57.654;12.044;2024-02-21T07:38:31;99722.50;;;11.08;100.00
19797;BME280;10058;57.654;12.044;2024-02-21T07:40:56;99722.47;;;11.05;100.00
19797;BME280;10058;57.654;12.044;2024-02-21T07:43:21;99729.53;;;11.04;100.00
19797;BME280;10058;57.654;12.044;2024-02-21T07:45:47;99717.09;;;10.96;100.00
19797;BME280;10058;57.654;12.044;2024-02-21T07:48:12;99725.28;;;11.25;100.00
19797;BME280;10058;57.654;12.044;2024-02-21T07:50:38;99723.50;;;11.21;100.00
19797;BME280;10058;57.654;12.044;2024-02-21T07:53:03;99728.81;;;11.24;100.00
19797;BME280;10058;57.654;12.044;2024-02-21T07:55:28;99727.78;;;11.06;100.00
19797;BME280;10058;57.654;12.044;2024-02-21T07:57:53;99725.16;;;11.11;100.00
19797;BME280;10058;57.654;12.044;2024-02-21T08:00:19;99720.00;;;11.25;100.00
19797;BME280;10058;57.654;12.044;2024-02-21T08:02:48;99714.72;;;11.25;100.00
19797;BME280;10058;57.654;12.044;2024-02-21T08:05:13;99730.56;;;11.22;100.00
19797;BME280;10058;57.654;12.044;2024-02-21T08:07:38;99730.44;;;11.09;100.00
19797;BME280;10058;57.654;12.044;2024-02-21T08:10:04;99739.34;;;11.19;100.00
19797;BME280;10058;57.654;12.044;2024-02-21T08:12:29;99742.56;;;10.86;100.00
19797;BME280;10058;57.654;12.044;2024-02-21T08:14:54;99751.28;;;10.79;100.00
19797;BME280;10058;57.654;12.044;2024-02-21T08:17:19;99753.03;;;10.77;100.00
19797;BME280;10058;57.654;12.044;2024-02-21T08:19:45;99761.94;;;10.85;100.00
19797;BME280;10058;57.654;12.044;2024-02-21T08:22:10;99760.25;;;10.93;100.00
19797;BME280;10058;57.654;12.044;2024-02-21T08:24:35;99758.44;;;10.86;100.00
19797;BME280;10058;57.654;12.044;2024-02-21T08:27:00;99749.81;;;11.05;100.00
19797;BME280;10058;57.654;12.044;2024-02-21T08:29:26;99769.13;;;10.98;100.00
19797;BME280;10058;57.654;12.044;2024-02-21T08:31:53;99763.88;;;11.01;100.00
19797;BME280;10058;57.654;12.044;2024-02-21T08:34:18;99751.41;;;10.88;100.00
19797;BME280;10058;57.654;12.044;2024-02-21T08:36:43;99767.66;;;11.31;100.00
19797;BME280;10058;57.654;12.044;2024-02-21T08:39:08;99771.09;;;11.21;100.00
19797;BME280;10058;57.654;12.044;2024-02-21T08:41:34;99787.50;;;10.86;100.00
19797;BME280;10058;57.654;12.044;2024-02-21T08:44:00;99794.00;;;11.19;100.00
19797;BME280;10058;57.654;12.044;2024-02-21T08:46:25;99794.50;;;10.82;100.00
19797;BME280;10058;57.654;12.044;2024-02-21T08:48:51;99798.81;;;10.73;100.00
19797;BME280;10058;57.654;12.044;2024-02-21T08:51:17;99797.25;;;10.93;100.00
19797;BME280;10058;57.654;12.044;2024-02-21T08:53:43;99803.38;;;10.88;100.00
19797;BME280;10058;57.654;12.044;2024-02-21T08:56:08;99803.03;;;11.40;100.00
19797;BME280;10058;57.654;12.044;2024-02-21T08:58:34;99807.44;;;11.44;100.00
19797;BME280;10058;57.654;12.044;2024-02-21T09:01:00;99813.59;;;11.43;100.00
19797;BME280;10058;57.654;12.044;2024-02-21T09:03:26;99829.47;;;11.39;100.00
19797;BME280;10058;57.654;12.044;2024-02-21T09:05:51;99817.03;;;11.32;100.00
19797;BME280;10058;57.654;12.044;2024-02-21T09:08:16;99822.28;;;11.24;100.00
19797;BME280;10058;57.654;12.044;2024-02-21T09:10:41;99820.59;;;11.34;100.00
19797;BME280;10058;57.654;12.044;2024-02-21T09:13:06;99816.41;;;11.60;100.00
19797;BME280;10058;57.654;12.044;2024-02-21T09:15:33;99816.59;;;11.81;100.00
19797;BME280;10058;57.654;12.044;2024-02-21T09:17:58;99812.00;;;11.62;100.00
19797;BME280;10058;57.654;12.044;2024-02-21T09:20:24;99817.56;;;11.96;100.00
19797;BME280;10058;57.654;12.044;2024-02-21T09:22:49;99816.88;;;12.23;100.00
19797;BME280;10058;57.654;12.044;2024-02-21T09:25:14;99820.31;;;12.08;100.00
19797;BME280;10058;57.654;12.044;2024-02-21T09:27:40;99818.19;;;11.64;100.00
19797;BME280;10058;57.654;12.044;2024-02-21T09:30:05;99818.69;;;11.19;100.00
19797;BME280;10058;57.654;12.044;2024-02-21T09:32:31;99820.66;;;11.40;100.00
19797;BME280;10058;57.654;12.044;2024-02-21T09:34:57;99827.75;;;11.47;100.00
19797;BME280;10058;57.654;12.044;2024-02-21T09:37:23;99835.00;;;11.69;100.00
19797;BME280;10058;57.654;12.044;2024-02-21T09:39:48;99832.97;;;11.38;100.00
19797;BME280;10058;57.654;12.044;2024-02-21T09:42:15;99836.19;;;11.05;100.00
19797;BME280;10058;57.654;12.044;2024-02-21T09:44:44;99795.59;;;11.01;100.00
19797;BME280;10058;57.654;12.044;2024-02-21T09:47:12;99837.56;;;11.56;100.00
19797;BME280;10058;57.654;12.044;2024-02-21T09:49:42;99828.72;;;11.54;100.00
19797;BME280;10058;57.654;12.044;2024-02-21T09:52:10;99813.25;;;12.05;100.00
19797;BME280;10058;57.654;12.044;2024-02-21T09:54:38;99805.25;;;11.95;100.00
19797;BME280;10058;57.654;12.044;2024-02-21T09:57:05;99827.34;;;12.04;100.00
19797;BME280;10058;57.654;12.044;2024-02-21T09:59:31;99850.94;;;11.72;100.00
19797;BME280;10058;57.654;12.044;2024-02-21T10:01:56;99868.47;;;11.58;100.00
19797;BME280;10058;57.654;12.044;2024-02-21T10:04:22;99877.47;;;11.78;100.00
19797;BME280;10058;57.654;12.044;2024-02-21T10:06:47;99890.28;;;11.37;100.00
19797;BME280;10058;57.654;12.044;2024-02-21T10:11:48;99898.09;;;11.24;100.00
19797;BME280;10058;57.654;12.044;2024-02-21T10:14:13;99914.94;;;11.33;100.00
19797;BME280;10058;57.654;12.044;2024-02-21T10:16:40;99924.56;;;11.27;100.00
19797;BME280;10058;57.654;12.044;2024-02-21T10:19:05;99931.16;;;10.88;100.00
19797;BME280;10058;57.654;12.044;2024-02-21T10:21:31;99928.22;;;11.38;100.00
19797;BME280;10058;57.654;12.044;2024-02-21T10:23:56;99926.59;;;11.52;100.00
19797;BME280;10058;57.654;12.044;2024-02-21T10:26:22;99934.44;;;10.69;100.00
19797;BME280;10058;57.654;12.044;2024-02-21T10:28:47;99943.53;;;10.92;100.00
19797;BME280;10058;57.654;12.044;2024-02-21T10:31:26;99946.97;;;10.85;100.00
19797;BME280;10058;57.654;12.044;2024-02-21T12:09:41;99777.56;;;8.44;100.00
19797;BME280;10058;57.654;12.044;2024-02-21T12:12:07;99472.75;;;8.86;100.00
19797;BME280;10058;57.654;12.044;2024-02-21T12:14:33;99288.47;;;8.98;100.00
19797;BME280;10058;57.654;12.044;2024-02-21T12:16:59;99196.59;;;8.46;100.00
19797;BME280;10058;57.654;12.044;2024-02-21T12:19:25;99235.31;;;8.56;100.00
19797;BME280;10058;57.654;12.044;2024-02-21T12:21:51;99231.41;;;8.23;100.00
19797;BME280;10058;57.654;12.044;2024-02-21T12:24:20;99213.84;;;8.22;100.00
19797;BME280;10058;57.654;12.044;2024-02-21T12:26:46;99229.72;;;8.28;100.00
19797;BME280;10058;57.654;12.044;2024-02-21T12:29:11;99234.56;;;8.64;100.00
19797;BME280;10058;57.654;12.044;2024-02-21T12:31:37;99240.06;;;8.90;100.00
19797;BME280;10058;57.654;12.044;2024-02-21T12:34:02;99233.97;;;8.94;100.00
19797;BME280;10058;57.654;12.044;2024-02-21T12:36:27;99269.16;;;8.99;100.00
19797;BME280;10058;57.654;12.044;2024-02-21T12:38:52;99271.91;;;9.12;100.00
19797;BME280;10058;57.654;12.044;2024-02-21T12:41:18;99298.97;;;8.95;100.00
19797;BME280;10058;57.654;12.044;2024-02-21T12:43:43;99308.50;;;8.83;100.00
19797;BME280;10058;57.654;12.044;2024-02-21T12:46:08;99319.06;;;8.87;100.00
19797;BME280;10058;57.654;12.044;2024-02-21T12:48:33;99364.06;;;9.05;100.00
19797;BME280;10058;57.654;12.044;2024-02-21T12:50:59;99363.06;;;8.93;100.00
19797;BME280;10058;57.654;12.044;2024-02-21T12:53:24;99371.16;;;9.10;100.00
19797;BME280;10058;57.654;12.044;2024-02-21T12:55:50;99373.88;;;9.16;100.00
19797;BME280;10058;57.654;12.044;2024-02-21T12:58:15;99384.59;;;9.32;100.00
19797;BME280;10058;57.654;12.044;2024-02-21T13:00:40;99395.88;;;9.21;100.00
19797;BME280;10058;57.654;12.044;2024-02-21T13:03:06;99414.28;;;9.16;100.00
19797;BME280;10058;57.654;12.044;2024-02-21T13:05:31;99428.94;;;8.94;100.00
19797;BME280;10058;57.654;12.044;2024-02-21T13:07:57;99437.56;;;8.81;100.00
19797;BME280;10058;57.654;12.044;2024-02-21T13:10:22;99435.50;;;8.59;100.00
19797;BME280;10058;57.654;12.044;2024-02-21T13:12:47;99441.38;;;8.40;100.00
19797;BME280;10058;57.654;12.044;2024-02-21T13:15:13;99435.28;;;8.44;100.00
19797;BME280;10058;57.654;12.044;2024-02-21T13:17:38;99447.56;;;8.43;100.00
19797;BME280;10058;57.654;12.044;2024-02-21T13:20:04;99463.13;;;8.29;100.00
19797;BME280;10058;57.654;12.044;2024-02-21T13:22:30;99477.16;;;8.28;100.00
19797;BME280;10058;57.654;12.044;2024-02-21T13:24:56;99497.97;;;8.13;100.00
19797;BME280;10058;57.654;12.044;2024-02-21T13:27:21;99492.25;;;8.38;100.00
19797;BME280;10058;57.654;12.044;2024-02-21T13:29:46;99510.75;;;7.93;100.00
19797;BME280;10058;57.654;12.044;2024-02-21T13:32:11;99514.22;;;7.91;100.00
19797;BME280;10058;57.654;12.044;2024-02-21T13:34:36;99511.84;;;8.06;100.00
19797;BME280;10058;57.654;12.044;2024-02-21T13:37:02;99523.63;;;7.80;100.00
19797;BME280;10058;57.654;12.044;2024-02-21T13:39:28;99531.63;;;7.84;100.00
19797;BME280;10058;57.654;12.044;2024-02-21T13:41:53;99525.53;;;7.87;100.00
19797;BME280;10058;57.654;12.044;2024-02-21T13:44:19;99530.47;;;7.70;100.00
19797;BME280;10058;57.654;12.044;2024-02-21T13:46:44;99544.00;;;7.43;100.00
19797;BME280;10058;57.654;12.044;2024-02-21T13:49:09;99539.59;;;7.42;100.00
19797;BME280;10058;57.654;12.044;2024-02-21T13:51:35;99526.31;;;7.36;100.00
19797;BME280;10058;57.654;12.044;2024-02-21T13:54:04;99526.81;;;7.60;100.00
19797;BME280;10058;57.654;12.044;2024-02-21T13:56:30;99537.38;;;7.65;100.00
19797;BME280;10058;57.654;12.044;2024-02-21T13:58:55;99528.56;;;7.61;100.00
19797;BME280;10058;57.654;12.044;2024-02-21T14:01:20;99538.47;;;7.31;100.00
19797;BME280;10058;57.654;12.044;2024-02-21T14:03:45;99533.34;;;7.37;100.00
19797;BME280;10058;57.654;12.044;2024-02-21T14:06:11;99524.91;;;7.53;100.00
19797;BME280;10058;57.654;12.044;2024-02-21T14:08:37;99509.06;;;7.50;100.00